Flight Track Log - Related Links

Times and Time Zones

All times are in EDT time to prevent confusion due to time zone crossing. See the UCA4847 flight status page for this flight to view local times or setup timezone preferences in your user account.

Time Position Orientation Groundspeed Altitude Reporting Facility
EDT Latitude Longitude Course Direction KTS MPH feet Rate Location/Type
Wed 06:35:07 PM 41.3733 -81.8614 157° South 145 167 2,100  Level Cleveland Center
Wed 06:36:26 PM 41.3175 -81.8300 89° East 167 192 4,000 1,381 Climbing Cleveland Center
Wed 06:37:00 PM 41.3178 -81.7969 69° East 203 234 4,700 1,468 Climbing Cleveland Center
Wed 06:38:00 PM 41.3372 -81.7308 76° East 222 255 6,300 1,550 Climbing Cleveland Center
Wed 06:39:00 PM 41.3525 -81.6508 119° Southeast 216 249 7,800 1,350 Climbing Cleveland Center
Wed 06:40:00 PM 41.3261 -81.5869 128° Southeast 183 211 9,000 600 Climbing Cleveland Center
Wed 06:41:00 PM 41.2828 -81.5144 126° Southeast 216 249 9,000  Level Cleveland Center
Wed 06:42:00 PM 41.2356 -81.4281 128° Southeast 272 313 9,000  Level Cleveland Center
Wed 06:43:00 PM 41.1922 -81.3531 126° Southeast 291 335 9,000  Level Cleveland Center
Wed 06:44:00 PM 41.1450 -81.2669 125° Southeast 291 335 9,000  Level Cleveland Center
Wed 06:45:00 PM 41.0975 -81.1783 119° Southeast 291 335 9,000  Level Cleveland Center
Wed 06:46:00 PM 41.0583 -81.0842 118° Southeast 291 335 9,000  Level Cleveland Center
Wed 06:47:00 PM 41.0169 -80.9794 120° Southeast 291 335 9,000  Level Cleveland Center
Wed 06:48:00 PM 40.9756 -80.8828 123° Southeast 291 335 9,000  Level Cleveland Center
Wed 06:49:00 PM 40.9319 -80.7947 126° Southeast 291 335 9,000  Level Cleveland Center
Wed 06:50:00 PM 40.8842 -80.7067 127° Southeast 296 341 9,000 50 Level Cleveland Center
Wed 06:51:00 PM 40.8364 -80.6217 135° Southeast 291 335 9,100 -550 Climbing Cleveland Center
Wed 06:52:00 PM 40.7800 -80.5475 135° Southeast 291 335 7,900 -1,350 Descending Cleveland Center
Wed 06:53:00 PM 40.7258 -80.4761 131° Southeast 286 329 6,400 -900 Descending Cleveland Center
Wed 06:54:00 PM 40.6819 -80.4106 134° Southeast 249 287 6,100 -150 Descending Cleveland Center
Wed 06:55:00 PM 40.6339 -80.3450 132° Southeast 244 281 6,100  Level Cleveland Center
Wed 06:55:30 PM 40.6147 -80.3167 127° Southeast 249 287 6,100 -85 Level FAA TRACON SMA TRACON (SMA)
Wed 06:56:11 PM 40.5853 -80.2647 90° East 267 307 6,000 -741 Descending FAA TRACON SMA TRACON (SMA)
Wed 06:56:51 PM 40.5856 -80.1978 106° East 274 315 5,100 -1,425 Descending FAA TRACON SMA TRACON (SMA)
Wed 06:57:31 PM 40.5733 -80.1414 171° South 254 292 4,100 -1,575 Descending FAA TRACON SMA TRACON (SMA)
Wed 06:58:11 PM 40.5281 -80.1317 206° Southwest 208 239 3,000 -1,050 Descending FAA TRACON SMA TRACON (SMA)
Wed 06:58:51 PM 40.5047 -80.1467 258° West 163 188 2,700 -750 Descending FAA TRACON SMA TRACON (SMA)
Wed 06:59:31 PM 40.4994 -80.1794 272° West 130 150 2,000 -835 Descending FAA TRACON SMA TRACON (SMA)
Wed 07:00:10 PM 40.5003 -80.2047 273° West 114 131 1,600 -450 Descending FAA TRACON SMA TRACON (SMA)
Wed 07:00:51 PM 40.5008 -80.2208 273° West 114 131 1,400 -293 Descending FAA TRACON SMA TRACON (SMA)

Login

Don't have an account? Register now (free) for customized features, flight alerts, and more!